createdAt,value
2019-05-20T00:00:29.375Z,5.05
2019-05-20T00:02:58.586Z,4.62
2019-05-20T00:05:27.704Z,4.35
2019-05-20T00:07:56.827Z,4.60
2019-05-20T00:10:26.028Z,4.50
2019-05-20T00:12:55.179Z,4.50
2019-05-20T00:15:24.298Z,4.45
2019-05-20T00:17:53.379Z,4.67
2019-05-20T00:20:22.484Z,4.63
2019-05-20T00:22:51.609Z,4.42
2019-05-20T00:25:20.751Z,5.10
2019-05-20T00:27:49.865Z,4.40
2019-05-20T00:30:19.170Z,4.72
2019-05-20T00:32:48.271Z,4.70
2019-05-20T00:35:17.393Z,4.40
2019-05-20T00:37:46.654Z,4.95
2019-05-20T00:40:15.933Z,5.00
2019-05-20T00:42:45.078Z,5.05
2019-05-20T00:45:17.118Z,5.10
2019-05-20T00:47:46.209Z,5.40
2019-05-20T00:50:15.419Z,5.03
2019-05-20T00:52:44.612Z,5.50
2019-05-20T00:55:28.849Z,5.15
2019-05-20T00:57:57.947Z,5.30
2019-05-20T01:00:27.560Z,5.65
2019-05-20T01:02:57.473Z,5.10
2019-05-20T01:05:26.851Z,5.37
2019-05-20T01:07:55.921Z,5.37
2019-05-20T01:10:25.032Z,5.30
2019-05-20T01:12:54.113Z,5.60
2019-05-20T01:15:23.253Z,5.33
2019-05-20T01:17:52.371Z,5.50
2019-05-20T01:20:21.557Z,5.37
2019-05-20T01:22:50.769Z,5.40
2019-05-20T01:25:19.881Z,5.33
2019-05-20T01:27:48.970Z,5.85
2019-05-20T01:30:18.960Z,5.35
2019-05-20T01:32:48.168Z,6.03
2019-05-20T01:35:17.466Z,5.95
2019-05-20T01:37:46.612Z,6.03
2019-05-20T01:40:15.838Z,5.85
2019-05-20T01:42:44.938Z,6.45
2019-05-20T01:45:14.159Z,5.67
2019-05-20T01:47:43.316Z,6.08
2019-05-20T01:50:13.195Z,6.20
2019-05-20T01:52:42.350Z,5.65
2019-05-20T01:55:11.828Z,6.37
2019-05-20T01:57:40.927Z,6.40
2019-05-20T02:00:11.352Z,6.30
2019-05-20T02:02:40.447Z,6.40
2019-05-20T02:05:09.839Z,6.42
2019-05-20T02:07:38.997Z,7.10
2019-05-20T02:10:08.529Z,7.05
2019-05-20T02:12:37.633Z,7.60
2019-05-20T02:15:13.149Z,7.23
2019-05-20T02:17:42.307Z,7.35
2019-05-20T02:20:11.546Z,7.50
2019-05-20T02:22:40.749Z,7.95
2019-05-20T02:25:09.948Z,7.90
2019-05-20T02:27:39.095Z,8.03
2019-05-20T02:30:08.354Z,8.60
2019-05-20T02:32:37.505Z,8.15
2019-05-20T02:35:06.704Z,8.70
2019-05-20T02:37:35.879Z,8.88
2019-05-20T02:40:05.854Z,8.85
2019-05-20T02:42:34.945Z,9.55
2019-05-20T02:45:04.211Z,10.20
2019-05-20T02:47:33.336Z,10.25
2019-05-20T02:50:02.486Z,10.45
2019-05-20T02:52:31.638Z,10.88
2019-05-20T02:55:00.779Z,11.33
2019-05-20T02:57:29.874Z,11.10
2019-05-20T02:59:59.005Z,10.65
2019-05-20T03:02:28.166Z,11.28
2019-05-20T03:04:57.275Z,12.13
2019-05-20T03:07:26.439Z,12.37
2019-05-20T03:09:55.572Z,13.20
2019-05-20T03:12:25.356Z,13.25
2019-05-20T03:14:54.497Z,12.90
2019-05-20T03:17:23.874Z,12.65
2019-05-20T03:19:52.994Z,14.33
2019-05-20T03:22:22.151Z,14.80
2019-05-20T03:24:51.347Z,14.80
2019-05-20T03:27:20.432Z,15.00
2019-05-20T03:29:49.622Z,15.67
2019-05-20T03:32:18.783Z,15.77
2019-05-20T03:34:57.552Z,16.27
2019-05-20T03:37:18.827Z,17.35
2019-05-20T03:39:47.970Z,16.37
2019-05-20T03:42:17.128Z,17.40
2019-05-20T03:44:46.264Z,17.27
2019-05-20T03:47:15.360Z,17.20
2019-05-20T03:49:44.594Z,17.50
2019-05-20T03:52:13.740Z,17.27
2019-05-20T03:54:42.853Z,17.75
2019-05-20T03:57:11.979Z,18.70
2019-05-20T03:59:41.096Z,18.00
2019-05-20T04:02:10.291Z,18.30
2019-05-20T04:04:39.549Z,18.80
2019-05-20T04:07:08.685Z,19.13
2019-05-20T04:09:37.869Z,20.05
2019-05-20T04:12:07.030Z,19.60
2019-05-20T04:14:36.137Z,19.05
2019-05-20T04:17:05.302Z,19.25
2019-05-20T04:19:34.450Z,19.82
2019-05-20T04:22:03.608Z,19.62
2019-05-20T04:24:32.736Z,19.42
2019-05-20T04:27:01.900Z,20.48
2019-05-20T04:29:31.569Z,19.80
2019-05-20T04:32:00.689Z,20.30
2019-05-20T04:34:29.872Z,19.70
2019-05-20T04:36:59.033Z,19.03
2019-05-20T04:39:28.287Z,18.40
2019-05-20T04:41:58.218Z,20.32
2019-05-20T04:44:27.382Z,20.05
2019-05-20T04:46:57.970Z,20.90
2019-05-20T04:49:27.311Z,19.98
2019-05-20T04:51:56.486Z,19.77
2019-05-20T04:54:25.594Z,20.00
2019-05-20T04:56:54.766Z,19.15
2019-05-20T04:59:23.991Z,20.00
2019-05-20T05:01:53.131Z,20.10
2019-05-20T05:04:22.293Z,18.60
2019-05-20T05:06:51.445Z,17.48
2019-05-20T05:09:20.582Z,16.30
2019-05-20T05:11:49.717Z,17.10
2019-05-20T05:14:18.846Z,16.53
2019-05-20T05:16:48.053Z,14.45
2019-05-20T05:19:17.206Z,13.90
2019-05-20T05:21:46.330Z,12.70
2019-05-20T05:24:15.464Z,11.50
2019-05-20T05:26:47.678Z,11.10
2019-05-20T05:29:15.473Z,13.22
2019-05-20T05:31:44.624Z,14.90
2019-05-20T05:34:13.750Z,14.53
2019-05-20T05:36:42.900Z,14.90
2019-05-20T05:39:12.033Z,15.40
2019-05-20T05:41:41.175Z,15.40
2019-05-20T05:44:10.329Z,14.03
2019-05-20T05:46:39.452Z,14.65
2019-05-20T05:49:08.604Z,15.20
2019-05-20T05:51:37.769Z,16.50
2019-05-20T05:54:06.900Z,16.27
2019-05-20T05:56:36.039Z,17.82
2019-05-20T05:59:05.151Z,19.15
2019-05-20T06:01:34.454Z,20.87
2019-05-20T06:04:03.572Z,22.48
2019-05-20T06:06:32.727Z,23.47
2019-05-20T06:09:01.973Z,22.73
2019-05-20T06:11:31.117Z,22.50
2019-05-20T06:14:00.357Z,24.15
2019-05-20T06:16:36.474Z,22.60
2019-05-20T06:19:00.364Z,23.00
2019-05-20T06:21:29.492Z,24.18
2019-05-20T06:23:58.695Z,24.23
2019-05-20T06:26:27.818Z,23.40
2019-05-20T06:28:57.066Z,23.67
2019-05-20T06:31:26.223Z,23.05
2019-05-20T06:33:55.432Z,22.90
2019-05-20T06:36:27.180Z,24.15
2019-05-20T06:39:11.995Z,24.07
2019-05-20T06:41:41.428Z,24.47
2019-05-20T06:44:10.556Z,24.00
2019-05-20T06:46:39.691Z,24.07
2019-05-20T06:49:08.825Z,23.40
2019-05-20T06:51:38.119Z,23.87
2019-05-20T06:54:07.301Z,23.33
2019-05-20T06:56:36.406Z,22.95
2019-05-20T06:59:05.728Z,24.05
2019-05-20T07:01:34.877Z,24.12
2019-05-20T07:04:04.041Z,24.32
2019-05-20T07:06:45.417Z,24.72
2019-05-20T07:09:05.709Z,24.98
2019-05-20T07:11:34.844Z,23.95
2019-05-20T07:14:04.026Z,24.17
2019-05-20T07:16:33.165Z,24.70
2019-05-20T07:19:02.316Z,23.62
2019-05-20T07:21:31.451Z,23.30
2019-05-20T07:24:00.618Z,24.25
2019-05-20T07:26:29.748Z,23.62
2019-05-20T07:28:58.921Z,24.70
2019-05-20T07:31:28.051Z,24.20
2019-05-20T07:33:57.191Z,24.05
2019-05-20T07:36:26.450Z,23.57
2019-05-20T07:38:55.675Z,22.98
2019-05-20T07:41:24.827Z,23.35
2019-05-20T07:43:53.980Z,23.10
2019-05-20T07:46:23.130Z,22.73
2019-05-20T07:48:52.563Z,21.93
2019-05-20T07:51:22.654Z,21.87
2019-05-20T07:53:52.541Z,22.15
2019-05-20T07:56:25.232Z,22.15
2019-05-20T07:58:57.266Z,21.60
2019-05-20T08:01:26.435Z,21.10
2019-05-20T08:03:55.524Z,19.23
2019-05-20T08:06:25.289Z,19.62
2019-05-20T08:08:54.411Z,19.73
2019-05-20T08:11:23.562Z,19.20
2019-05-20T08:13:52.689Z,19.50
2019-05-20T08:16:21.934Z,19.73
2019-05-20T08:18:51.105Z,19.77
2019-05-20T08:21:20.285Z,19.50
2019-05-20T08:23:50.289Z,19.00
2019-05-20T08:26:19.538Z,18.17
2019-05-20T08:28:48.680Z,17.80
2019-05-20T08:31:17.831Z,17.98
2019-05-20T08:33:46.991Z,17.45
2019-05-20T08:36:16.145Z,18.25
2019-05-20T08:38:45.488Z,18.05
2019-05-20T08:41:14.646Z,19.10
2019-05-20T08:43:43.893Z,18.48
2019-05-20T08:46:13.007Z,17.40
2019-05-20T08:48:42.273Z,17.48
2019-05-20T08:51:11.393Z,18.07
2019-05-20T08:53:40.593Z,18.02
2019-05-20T08:56:09.783Z,19.80
2019-05-20T08:58:38.916Z,19.07
2019-05-20T09:01:09.236Z,19.20
2019-05-20T09:03:38.927Z,18.82
2019-05-20T09:06:08.386Z,17.65
2019-05-20T09:08:37.537Z,17.62
2019-05-20T09:11:06.666Z,17.20
2019-05-20T09:13:35.956Z,17.70
2019-05-20T09:16:05.105Z,17.13
2019-05-20T09:18:34.228Z,17.40
2019-05-20T09:21:03.429Z,17.02
2019-05-20T09:23:32.699Z,18.77
2019-05-20T09:26:01.820Z,17.98
2019-05-20T09:28:30.969Z,16.93
2019-05-20T09:31:00.139Z,18.20
2019-05-20T09:33:29.227Z,18.60
2019-05-20T09:35:58.402Z,17.45
2019-05-20T09:38:27.669Z,17.32
2019-05-20T09:40:56.794Z,18.30
2019-05-20T09:43:25.995Z,18.10
2019-05-20T09:46:06.253Z,18.20
2019-05-20T09:48:26.038Z,19.45
2019-05-20T09:50:55.314Z,18.32
2019-05-20T09:53:26.354Z,19.15
2019-05-20T09:55:55.505Z,18.45
2019-05-20T09:58:24.668Z,19.30
2019-05-20T10:00:53.845Z,18.87
2019-05-20T10:03:23.032Z,19.02
2019-05-20T10:05:52.370Z,19.52
2019-05-20T10:08:36.224Z,19.37
2019-05-20T10:10:52.596Z,18.20
2019-05-20T10:13:21.758Z,18.25
2019-05-20T10:15:51.205Z,18.80
2019-05-20T10:18:36.105Z,17.23
2019-05-20T10:20:51.341Z,18.33
2019-05-20T10:23:20.943Z,17.80
2019-05-20T10:25:50.458Z,16.90
2019-05-20T10:28:19.741Z,17.00
2019-05-20T10:30:49.047Z,17.13
2019-05-20T10:33:19.604Z,17.23
2019-05-20T10:35:48.908Z,16.60
2019-05-20T10:38:18.104Z,16.50
2019-05-20T10:40:47.523Z,15.30
2019-05-20T10:43:16.803Z,15.48
2019-05-20T10:45:46.084Z,15.00
2019-05-20T10:48:15.333Z,14.77
2019-05-20T10:50:44.565Z,15.08
2019-05-20T10:53:13.809Z,14.77
2019-05-20T10:55:43.112Z,15.25
2019-05-20T10:58:12.322Z,14.63
2019-05-20T11:01:00.218Z,14.93
2019-05-20T11:03:12.403Z,16.77
2019-05-20T11:05:41.665Z,19.00
2019-05-20T11:08:10.830Z,20.17
2019-05-20T11:10:40.078Z,20.10
2019-05-20T11:13:09.353Z,21.02
2019-05-20T11:15:38.611Z,21.73
2019-05-20T11:18:07.870Z,22.07
2019-05-20T11:20:37.375Z,21.82
2019-05-20T11:23:06.575Z,23.47
2019-05-20T11:25:35.799Z,24.77
2019-05-20T11:28:05.078Z,24.20
2019-05-20T11:30:34.432Z,25.00
2019-05-20T11:33:03.802Z,25.77
2019-05-20T11:35:33.035Z,25.45
2019-05-20T11:38:02.264Z,25.27
2019-05-20T11:40:31.500Z,24.12
2019-05-20T11:43:00.897Z,24.37
2019-05-20T11:45:30.137Z,23.73
2019-05-20T11:47:59.356Z,24.05
2019-05-20T11:50:28.885Z,23.87
2019-05-20T11:52:58.090Z,23.85
2019-05-20T11:55:27.599Z,23.65
2019-05-20T11:58:14.017Z,23.47
2019-05-20T12:00:27.789Z,24.55
2019-05-20T12:02:57.078Z,24.50
2019-05-20T12:05:26.434Z,26.02
2019-05-20T12:07:55.598Z,24.80
2019-05-20T12:10:24.897Z,25.62
2019-05-20T12:12:54.275Z,22.75
2019-05-20T12:15:23.538Z,22.27
2019-05-20T12:17:52.829Z,20.67
2019-05-20T12:20:22.195Z,21.50
2019-05-20T12:22:51.449Z,21.07
2019-05-20T12:25:20.988Z,20.90
2019-05-20T12:27:50.127Z,21.10
2019-05-20T12:30:19.433Z,20.77
2019-05-20T12:32:48.580Z,19.90
2019-05-20T12:35:18.250Z,19.83
2019-05-20T12:37:47.445Z,18.85
2019-05-20T12:40:16.658Z,18.15
2019-05-20T12:42:45.843Z,18.85
2019-05-20T12:45:15.199Z,17.42
2019-05-20T12:47:44.351Z,16.97
2019-05-20T12:50:15.901Z,16.12
2019-05-20T12:52:45.088Z,15.98
2019-05-20T12:55:14.714Z,14.87
2019-05-20T12:57:43.939Z,13.53
2019-05-20T13:00:14.062Z,13.05
2019-05-20T13:02:43.375Z,12.15
2019-05-20T13:05:13.422Z,11.50
2019-05-20T13:07:42.747Z,11.12
2019-05-20T13:10:32.125Z,10.20
2019-05-20T13:12:44.960Z,8.90
2019-05-20T13:15:14.556Z,7.80
2019-05-20T13:17:45.316Z,7.78
2019-05-20T13:20:14.862Z,8.30
2019-05-20T13:22:44.052Z,6.97
2019-05-20T13:25:13.256Z,6.87
2019-05-20T13:27:42.441Z,8.10
2019-05-20T13:30:12.102Z,7.27
2019-05-20T13:32:41.249Z,6.37
2019-05-20T13:35:10.636Z,5.50
2019-05-20T13:37:39.799Z,4.97
2019-05-20T13:40:09.439Z,5.10
2019-05-20T13:42:38.629Z,5.12
2019-05-20T13:45:09.191Z,5.30
2019-05-20T13:47:38.389Z,5.28
2019-05-20T13:50:08.407Z,5.12
2019-05-20T13:52:37.755Z,6.50
2019-05-20T13:55:06.876Z,10.30
2019-05-20T13:57:36.089Z,12.10
2019-05-20T14:00:05.604Z,12.05
2019-05-20T14:02:34.911Z,11.57
2019-05-20T14:05:04.274Z,10.72
2019-05-20T14:07:33.502Z,9.10
2019-05-20T14:10:02.675Z,9.03
2019-05-20T14:12:31.906Z,9.30
2019-05-20T14:15:01.131Z,9.80
2019-05-20T14:17:30.376Z,9.03
2019-05-20T14:19:59.529Z,10.50
2019-05-20T14:22:28.737Z,11.25
2019-05-20T14:24:58.029Z,11.53
2019-05-20T14:27:27.139Z,12.05
2019-05-20T14:29:56.330Z,12.25
2019-05-20T14:32:25.451Z,11.60
2019-05-20T14:34:54.711Z,12.10
2019-05-20T14:37:23.805Z,11.08
2019-05-20T14:39:52.974Z,11.97
2019-05-20T14:42:25.297Z,11.43
2019-05-20T14:44:53.219Z,11.15
2019-05-20T14:47:22.618Z,9.50
2019-05-20T14:49:51.724Z,9.10
2019-05-20T14:52:20.886Z,9.40
2019-05-20T14:54:50.118Z,9.20
2019-05-20T14:57:19.410Z,9.80
2019-05-20T14:59:48.577Z,9.77
2019-05-20T15:02:17.778Z,10.90
2019-05-20T15:04:46.977Z,10.43
2019-05-20T15:07:29.082Z,10.15
2019-05-20T15:09:47.093Z,11.30
2019-05-20T15:12:16.214Z,10.60
2019-05-20T15:14:45.400Z,11.90
2019-05-20T15:17:14.552Z,11.63
2019-05-20T15:19:43.803Z,11.78
2019-05-20T15:22:13.543Z,11.83
2019-05-20T15:24:42.832Z,14.00
2019-05-20T15:27:12.020Z,14.63
2019-05-20T15:29:41.141Z,11.95
2019-05-20T15:32:10.338Z,12.82
2019-05-20T15:34:39.510Z,12.82
2019-05-20T15:37:08.695Z,13.05
2019-05-20T15:39:37.904Z,12.28
2019-05-20T15:42:07.111Z,12.82
2019-05-20T15:44:36.338Z,12.55
2019-05-20T15:47:05.599Z,12.60
2019-05-20T15:49:34.855Z,12.30
2019-05-20T15:52:04.072Z,11.55
2019-05-20T15:54:33.211Z,10.40
2019-05-20T15:57:02.453Z,10.00
2019-05-20T15:59:44.782Z,10.28
2019-05-20T16:02:02.571Z,9.60
2019-05-20T16:04:31.877Z,9.95
2019-05-20T16:07:01.064Z,8.60
2019-05-20T16:09:30.270Z,8.70
2019-05-20T16:11:59.478Z,10.25
2019-05-20T16:14:28.638Z,9.60
2019-05-20T16:16:57.771Z,10.80
2019-05-20T16:19:26.999Z,10.58
2019-05-20T16:21:56.171Z,10.63
2019-05-20T16:24:25.326Z,11.50
2019-05-20T16:26:54.473Z,11.57
2019-05-20T16:29:23.636Z,12.10
2019-05-20T16:31:52.921Z,10.90
2019-05-20T16:34:22.141Z,12.10
2019-05-20T16:36:51.296Z,11.70
2019-05-20T16:39:20.488Z,11.90
2019-05-20T16:41:49.799Z,12.40
2019-05-20T16:44:18.993Z,12.78
2019-05-20T16:46:48.178Z,12.20
2019-05-20T16:49:17.385Z,12.18
2019-05-20T16:51:46.566Z,12.18
2019-05-20T16:54:15.780Z,12.15
2019-05-20T16:56:44.908Z,10.90
2019-05-20T16:59:14.111Z,11.50
2019-05-20T17:01:46.270Z,11.00
2019-05-20T17:04:14.142Z,11.22
2019-05-20T17:06:43.900Z,11.68
2019-05-20T17:09:13.139Z,12.10
2019-05-20T17:11:42.379Z,12.10
2019-05-20T17:14:11.541Z,12.57
2019-05-20T17:16:40.736Z,13.43
2019-05-20T17:19:10.086Z,13.33
2019-05-20T17:21:40.010Z,14.28
2019-05-20T17:24:15.417Z,14.10
2019-05-20T17:26:45.028Z,15.10
2019-05-20T17:29:15.737Z,14.70
2019-05-20T17:31:44.980Z,15.30
2019-05-20T17:34:14.232Z,15.63
2019-05-20T17:36:43.418Z,15.30
2019-05-20T17:39:12.626Z,15.83
2019-05-20T17:41:41.900Z,17.32
2019-05-20T17:44:11.082Z,16.95
2019-05-20T17:46:40.324Z,16.57
2019-05-20T17:49:09.497Z,18.27
2019-05-20T17:51:38.940Z,17.80
2019-05-20T17:54:08.188Z,18.67
2019-05-20T17:56:37.462Z,19.07
2019-05-20T17:59:06.626Z,18.48
2019-05-20T18:01:35.842Z,19.35
2019-05-20T18:04:05.298Z,20.00
2019-05-20T18:06:34.628Z,18.85
2019-05-20T18:09:05.873Z,18.47
2019-05-20T18:11:36.013Z,18.92
2019-05-20T18:14:05.597Z,21.20
2019-05-20T18:16:34.974Z,21.50
2019-05-20T18:19:04.284Z,22.75
2019-05-20T18:21:33.471Z,21.67
2019-05-20T18:24:02.685Z,22.93
2019-05-20T18:26:31.899Z,22.95
2019-05-20T18:29:01.251Z,22.25
2019-05-20T18:31:32.752Z,22.48
2019-05-20T18:34:01.432Z,24.80
2019-05-20T18:36:30.653Z,24.13
2019-05-20T18:38:59.895Z,20.60
2019-05-20T18:41:29.276Z,21.48
2019-05-20T18:43:58.609Z,21.10
2019-05-20T18:46:27.817Z,20.47
2019-05-20T18:48:57.205Z,20.50
2019-05-20T18:51:26.433Z,20.52
2019-05-20T18:53:56.122Z,20.35
2019-05-20T18:56:25.384Z,19.85
2019-05-20T18:58:54.805Z,19.70
2019-05-20T19:01:24.373Z,19.87
2019-05-20T19:03:53.744Z,21.80
2019-05-20T19:06:23.191Z,22.07
2019-05-20T19:08:52.933Z,19.62
2019-05-20T19:11:22.265Z,20.65
2019-05-20T19:13:51.593Z,22.27
2019-05-20T19:16:20.871Z,21.67
2019-05-20T19:18:51.498Z,22.55
2019-05-20T19:21:20.897Z,22.15
2019-05-20T19:23:50.190Z,19.92
2019-05-20T19:26:24.980Z,18.30
2019-05-20T19:28:50.724Z,16.70
2019-05-20T19:31:19.986Z,15.27
2019-05-20T19:33:49.467Z,15.60
2019-05-20T19:36:19.062Z,16.60
2019-05-20T19:38:48.350Z,13.90
2019-05-20T19:41:17.935Z,13.98
2019-05-20T19:43:47.710Z,11.80
2019-05-20T19:46:17.096Z,12.87
2019-05-20T19:48:47.882Z,11.43
2019-05-20T19:51:17.085Z,11.53
2019-05-20T19:53:46.380Z,11.87
2019-05-20T19:56:15.693Z,11.70
2019-05-20T19:58:44.985Z,11.28
2019-05-20T20:01:14.455Z,11.40
2019-05-20T20:03:44.219Z,11.43
2019-05-20T20:06:13.772Z,10.30
2019-05-20T20:08:43.526Z,10.90
2019-05-20T20:11:12.883Z,10.15
2019-05-20T20:13:42.130Z,10.28
2019-05-20T20:16:11.645Z,9.20
2019-05-20T20:18:40.894Z,9.03
2019-05-20T20:21:10.045Z,9.00
2019-05-20T20:23:39.253Z,9.25
2019-05-20T20:26:08.478Z,9.80
2019-05-20T20:28:38.905Z,10.63
2019-05-20T20:31:10.870Z,10.40
2019-05-20T20:33:39.842Z,11.40
2019-05-20T20:36:09.349Z,12.20
2019-05-20T20:38:38.522Z,13.70
2019-05-20T20:41:07.665Z,14.23
2019-05-20T20:43:36.850Z,14.20
2019-05-20T20:46:06.900Z,16.10
2019-05-20T20:48:36.175Z,16.80
2019-05-20T20:51:05.396Z,16.60
2019-05-20T20:53:34.569Z,17.45
2019-05-20T20:56:03.894Z,17.75
2019-05-20T20:58:33.107Z,16.35
2019-05-20T21:01:05.189Z,15.80
2019-05-20T21:03:34.369Z,15.70
2019-05-20T21:06:03.556Z,15.50
2019-05-20T21:08:32.769Z,15.43
2019-05-20T21:11:01.988Z,15.83
2019-05-20T21:13:31.167Z,16.42
2019-05-20T21:16:00.325Z,15.60
2019-05-20T21:18:29.501Z,14.33
2019-05-20T21:20:58.670Z,14.40
2019-05-20T21:23:27.853Z,14.43
2019-05-20T21:25:57.033Z,13.40
2019-05-20T21:28:28.861Z,12.33
2019-05-20T21:30:58.020Z,11.35
2019-05-20T21:33:27.195Z,11.27
2019-05-20T21:35:56.399Z,10.88
2019-05-20T21:38:25.529Z,10.53
2019-05-20T21:40:54.712Z,10.93
2019-05-20T21:43:23.879Z,11.00
2019-05-20T21:45:53.021Z,10.20
2019-05-20T21:48:22.182Z,9.95
2019-05-20T21:50:51.320Z,8.70
2019-05-20T21:53:20.435Z,8.00
2019-05-20T21:55:49.547Z,7.53
2019-05-20T21:58:18.794Z,8.55
2019-05-20T22:00:52.763Z,8.73
2019-05-20T22:03:24.457Z,7.58
2019-05-20T22:05:52.784Z,6.47
2019-05-20T22:08:21.926Z,6.25
2019-05-20T22:10:51.037Z,6.17
2019-05-20T22:13:20.201Z,7.10
2019-05-20T22:15:49.320Z,6.75
2019-05-20T22:18:18.457Z,7.22
2019-05-20T22:20:47.577Z,8.38
2019-05-20T22:23:40.268Z,9.15
2019-05-20T22:26:09.447Z,10.23
2019-05-20T22:28:38.561Z,11.73
2019-05-20T22:31:07.753Z,11.70
2019-05-20T22:33:41.483Z,12.70
2019-05-20T22:36:07.894Z,13.22
2019-05-20T22:38:37.013Z,14.63
2019-05-20T22:41:06.157Z,15.55
2019-05-20T22:43:35.351Z,17.37
2019-05-20T22:46:04.462Z,17.62
2019-05-20T22:48:33.568Z,18.83
2019-05-20T22:51:02.684Z,18.75
2019-05-20T22:53:31.839Z,19.25
2019-05-20T22:56:00.986Z,18.62
2019-05-20T22:58:30.163Z,19.20
2019-05-20T23:00:59.247Z,18.62
2019-05-20T23:03:28.507Z,17.62
2019-05-20T23:05:57.635Z,16.80
2019-05-20T23:08:26.765Z,17.48
2019-05-20T23:10:55.883Z,15.40
2019-05-20T23:13:25.034Z,16.62
2019-05-20T23:15:55.778Z,15.80
2019-05-20T23:18:25.061Z,13.62
2019-05-20T23:20:54.242Z,15.38
2019-05-20T23:23:23.379Z,13.98
2019-05-20T23:25:53.112Z,15.30
2019-05-20T23:28:22.367Z,13.85
2019-05-20T23:30:51.513Z,14.10
2019-05-20T23:33:20.603Z,13.55
2019-05-20T23:35:49.739Z,15.00
2019-05-20T23:38:18.829Z,13.43
2019-05-20T23:40:47.942Z,13.10
2019-05-20T23:43:17.047Z,12.88
2019-05-20T23:45:46.180Z,12.00
2019-05-20T23:48:15.287Z,12.47
2019-05-20T23:50:44.493Z,9.43
2019-05-20T23:53:13.619Z,8.98
2019-05-20T23:55:42.807Z,8.98
2019-05-20T23:58:13.378Z,9.75
